createdAt,value
2018-06-01T00:01:23.828Z,66.50
2018-06-01T00:03:52.923Z,66.50
2018-06-01T00:06:21.904Z,66.60
2018-06-01T00:08:50.129Z,66.50
2018-06-01T00:11:19.123Z,66.60
2018-06-01T00:13:48.133Z,66.10
2018-06-01T00:16:17.129Z,65.50
2018-06-01T00:18:46.129Z,65.60
2018-06-01T00:21:15.113Z,66.30
2018-06-01T00:23:43.325Z,66.10
2018-06-01T00:26:12.307Z,66.10
2018-06-01T00:28:40.516Z,66.20
2018-06-01T00:31:08.823Z,65.90
2018-06-01T00:33:37.802Z,66.40
2018-06-01T00:36:06.022Z,66.30
2018-06-01T00:38:34.229Z,66.10
2018-06-01T00:41:02.457Z,66.00
2018-06-01T00:43:30.717Z,66.00
2018-06-01T00:45:58.943Z,66.70
2018-06-01T00:48:27.150Z,66.40
2018-06-01T00:50:56.134Z,66.30
2018-06-01T00:53:24.357Z,66.20
2018-06-01T00:55:52.598Z,66.40
2018-06-01T00:58:20.810Z,66.10
2018-06-01T01:00:49.809Z,66.10
2018-06-01T01:03:18.033Z,66.10
2018-06-01T01:05:46.269Z,66.50
2018-06-01T01:08:14.538Z,66.40
2018-06-01T01:10:42.771Z,66.40
2018-06-01T01:13:11.776Z,66.40
2018-06-01T01:15:40.769Z,66.40
2018-06-01T01:18:08.981Z,66.30
2018-06-01T01:20:37.971Z,66.20
2018-06-01T01:23:06.953Z,65.90
2018-06-01T01:25:35.180Z,65.80
2018-06-01T01:28:04.177Z,66.20
2018-06-01T01:30:33.167Z,66.30
2018-06-01T01:33:01.406Z,66.30
2018-06-01T01:35:29.620Z,66.40
2018-06-01T01:37:57.841Z,66.50
2018-06-01T01:40:26.829Z,67.00
2018-06-01T01:42:55.085Z,66.10
2018-06-01T01:45:23.315Z,66.10
2018-06-01T01:47:51.537Z,66.30
2018-06-01T01:50:19.764Z,66.10
2018-06-01T01:52:48.007Z,66.20
2018-06-01T01:55:16.321Z,66.20
2018-06-01T01:57:44.539Z,66.20
2018-06-01T02:00:12.763Z,65.90
2018-06-01T02:02:41.753Z,66.20
2018-06-01T02:05:09.984Z,66.10
2018-06-01T02:07:38.210Z,66.90
2018-06-01T02:10:06.421Z,65.70
2018-06-01T02:12:35.422Z,66.10
2018-06-01T02:15:03.645Z,66.00
2018-06-01T02:17:31.872Z,65.80
2018-06-01T02:20:00.078Z,66.00
2018-06-01T02:22:28.305Z,66.10
2018-06-01T02:24:56.529Z,66.40
2018-06-01T02:27:24.752Z,66.70
2018-06-01T02:29:52.977Z,66.60
2018-06-01T02:32:21.205Z,66.70
2018-06-01T02:34:49.447Z,66.30
2018-06-01T02:37:17.707Z,66.50
2018-06-01T02:39:46.716Z,66.80
2018-06-01T02:42:15.705Z,66.80
2018-06-01T02:44:43.939Z,66.80
2018-06-01T02:47:12.161Z,66.80
2018-06-01T02:49:40.375Z,66.70
2018-06-01T02:52:08.594Z,66.90
2018-06-01T02:54:36.820Z,67.50
2018-06-01T02:57:05.150Z,67.20
2018-06-01T02:59:34.139Z,66.90
2018-06-01T03:02:02.370Z,66.80
2018-06-01T03:04:30.589Z,67.00
2018-06-01T03:07:18.606Z,66.80
2018-06-01T03:09:46.899Z,67.10
2018-06-01T03:12:15.112Z,67.10
2018-06-01T03:14:43.330Z,67.10
2018-06-01T03:17:11.542Z,67.20
2018-06-01T03:19:40.520Z,67.90
2018-06-01T03:22:08.737Z,67.10
2018-06-01T03:24:36.966Z,66.90
2018-06-01T03:27:05.174Z,67.10
2018-06-01T03:29:33.441Z,67.20
2018-06-01T03:32:01.673Z,67.10
2018-06-01T03:34:29.881Z,67.10
2018-06-01T03:36:58.141Z,67.90
2018-06-01T03:39:26.361Z,67.20
2018-06-01T03:41:54.604Z,67.70
2018-06-01T03:44:22.894Z,67.50
2018-06-01T03:46:51.103Z,67.80
2018-06-01T03:49:19.318Z,67.70
2018-06-01T03:51:47.569Z,67.60
2018-06-01T03:54:15.814Z,67.90
2018-06-01T03:56:44.050Z,68.10
2018-06-01T03:59:12.345Z,67.90
2018-06-01T04:01:41.333Z,68.30
2018-06-01T04:04:09.576Z,68.30
2018-06-01T04:06:37.784Z,68.50
2018-06-01T04:09:06.021Z,68.60
2018-06-01T04:11:35.005Z,68.60
2018-06-01T04:14:03.226Z,68.60
2018-06-01T04:16:31.449Z,69.00
2018-06-01T04:19:00.478Z,69.10
2018-06-01T04:21:28.701Z,69.00
2018-06-01T04:23:57.677Z,68.80
2018-06-01T04:26:25.913Z,68.80
2018-06-01T04:28:54.161Z,68.60
2018-06-01T04:31:22.468Z,68.70
2018-06-01T04:33:50.717Z,68.50
2018-06-01T04:36:18.973Z,68.70
2018-06-01T04:38:47.207Z,69.00
2018-06-01T04:41:15.438Z,68.90
2018-06-01T04:43:43.689Z,69.40
2018-06-01T04:46:12.999Z,69.50
2018-06-01T04:48:41.229Z,69.50
2018-06-01T04:51:09.453Z,69.50
2018-06-01T04:53:37.681Z,69.50
2018-06-01T04:56:06.719Z,69.20
2018-06-01T04:58:34.972Z,69.20
2018-06-01T05:01:03.172Z,69.50
2018-06-01T05:03:32.150Z,69.40
2018-06-01T05:06:00.385Z,69.30
2018-06-01T05:08:28.616Z,69.70
2018-06-01T05:10:56.837Z,70.50
2018-06-01T05:13:25.830Z,69.70
2018-06-01T05:15:54.112Z,69.70
2018-06-01T05:18:22.353Z,70.20
2018-06-01T05:20:50.606Z,69.60
2018-06-01T05:23:19.705Z,69.80
2018-06-01T05:25:48.065Z,69.80
2018-06-01T05:28:16.392Z,69.40
2018-06-01T05:30:44.580Z,69.10
2018-06-01T05:33:13.598Z,69.00
2018-06-01T05:35:42.575Z,69.70
2018-06-01T05:38:10.817Z,69.70
2018-06-01T05:40:39.045Z,69.80
2018-06-01T05:43:07.281Z,70.20
2018-06-01T05:45:35.519Z,69.60
2018-06-01T05:48:03.810Z,70.60
2018-06-01T05:50:32.047Z,70.00
2018-06-01T05:53:00.273Z,69.60
2018-06-01T05:55:28.517Z,69.80
2018-06-01T05:57:57.490Z,69.70
2018-06-01T06:00:25.744Z,69.70
2018-06-01T06:02:53.973Z,69.50
2018-06-01T06:05:22.965Z,70.40
2018-06-01T06:07:51.257Z,69.70
2018-06-01T06:10:20.258Z,69.50
2018-06-01T06:12:48.512Z,69.60
2018-06-01T06:15:16.813Z,70.00
2018-06-01T06:17:45.062Z,69.60
2018-06-01T06:20:13.261Z,69.60
2018-06-01T06:22:41.509Z,69.40
2018-06-01T06:25:11.238Z,69.90
2018-06-01T06:27:40.249Z,69.80
2018-06-01T06:30:09.261Z,70.20
2018-06-01T06:32:37.458Z,69.30
2018-06-01T06:35:06.450Z,69.50
2018-06-01T06:37:35.492Z,69.40
2018-06-01T06:40:03.658Z,69.30
2018-06-01T06:42:31.893Z,69.70
2018-06-01T06:45:00.296Z,69.50
2018-06-01T06:47:28.483Z,69.40
2018-06-01T06:49:56.736Z,69.90
2018-06-01T06:52:25.013Z,69.80
2018-06-01T06:54:53.289Z,70.00
2018-06-01T06:57:22.298Z,70.40
2018-06-01T06:59:50.561Z,70.10
2018-06-01T07:02:18.801Z,69.80
2018-06-01T07:04:47.051Z,69.80
2018-06-01T07:07:16.045Z,70.90
2018-06-01T07:09:44.271Z,71.00
2018-06-01T07:12:12.534Z,70.20
2018-06-01T07:14:41.516Z,70.70
2018-06-01T07:17:09.755Z,70.70
2018-06-01T07:19:37.984Z,71.20
2018-06-01T07:22:06.197Z,70.80
2018-06-01T07:24:35.278Z,70.80
2018-06-01T07:27:03.457Z,70.70
2018-06-01T07:29:31.685Z,71.00
2018-06-01T07:32:00.715Z,71.40
2018-06-01T07:34:29.685Z,71.20
2018-06-01T07:36:58.671Z,71.30
2018-06-01T07:39:26.893Z,71.30
2018-06-01T07:41:55.866Z,71.30
2018-06-01T07:44:24.139Z,71.40
2018-06-01T07:46:52.399Z,71.30
2018-06-01T07:49:21.400Z,71.60
2018-06-01T07:51:49.668Z,71.40
2018-06-01T07:54:18.795Z,71.00
2018-06-01T07:56:47.872Z,71.10
2018-06-01T07:59:16.078Z,71.00
2018-06-01T08:01:44.341Z,71.50
2018-06-01T08:04:12.636Z,72.20
2018-06-01T08:06:41.633Z,71.30
2018-06-01T08:09:09.887Z,71.20
2018-06-01T08:11:38.134Z,71.70
2018-06-01T08:14:07.117Z,70.40
2018-06-01T08:16:35.422Z,70.30
2018-06-01T08:19:04.407Z,70.80
2018-06-01T08:21:32.631Z,70.70
2018-06-01T08:24:00.913Z,71.50
2018-06-01T08:26:29.899Z,71.00
2018-06-01T08:28:58.133Z,70.90
2018-06-01T08:31:26.378Z,72.00
2018-06-01T08:33:54.649Z,71.40
2018-06-01T08:36:22.942Z,71.70
2018-06-01T08:38:51.171Z,70.50
2018-06-01T08:41:19.487Z,71.90
2018-06-01T08:43:48.529Z,71.30
2018-06-01T08:46:16.785Z,71.10
2018-06-01T08:48:45.027Z,73.40
2018-06-01T08:51:14.020Z,71.10
2018-06-01T08:53:42.241Z,70.90
2018-06-01T08:56:10.452Z,70.00
2018-06-01T08:58:38.664Z,71.60
2018-06-01T09:01:06.891Z,71.50
2018-06-01T09:03:35.970Z,70.60
2018-06-01T09:06:04.188Z,70.60
2018-06-01T09:08:32.401Z,73.00
2018-06-01T09:11:00.638Z,71.30
2018-06-01T09:13:28.847Z,72.10
2018-06-01T09:15:57.844Z,70.70
2018-06-01T09:18:26.836Z,71.60
2018-06-01T09:20:55.086Z,71.60
2018-06-01T09:23:23.326Z,72.90
2018-06-01T09:25:52.356Z,70.80
2018-06-01T09:28:20.722Z,70.80
2018-06-01T09:30:48.948Z,69.80
2018-06-01T09:33:17.190Z,71.40
2018-06-01T09:35:45.422Z,70.90
2018-06-01T09:38:13.644Z,71.80
2018-06-01T09:40:41.874Z,73.50
2018-06-01T09:43:10.849Z,71.40
2018-06-01T09:45:39.641Z,71.30
2018-06-01T09:48:07.862Z,71.80
2018-06-01T09:50:36.856Z,73.80
2018-06-01T09:53:05.101Z,73.70
2018-06-01T09:55:34.031Z,73.40
2018-06-01T09:58:02.202Z,72.10
2018-06-01T10:00:36.653Z,72.60
2018-06-01T10:03:05.081Z,73.10
2018-06-01T10:05:33.337Z,70.00
2018-06-01T10:08:02.317Z,70.90
2018-06-01T10:10:37.730Z,70.90
2018-06-01T10:13:07.273Z,71.40
2018-06-01T10:15:35.582Z,71.30
2018-06-01T10:18:03.831Z,72.10
2018-06-01T10:20:35.734Z,70.00
2018-06-01T10:23:03.983Z,70.00
2018-06-01T10:25:34.461Z,68.90
2018-06-01T10:28:02.662Z,70.10
2018-06-01T10:30:31.089Z,70.20
2018-06-01T10:32:59.340Z,70.50
2018-06-01T10:35:28.360Z,68.10
2018-06-01T10:37:57.352Z,71.50
2018-06-01T10:40:25.602Z,71.40
2018-06-01T10:42:53.849Z,69.70
2018-06-01T10:45:22.112Z,72.60
2018-06-01T10:47:51.101Z,75.50
2018-06-01T10:50:19.379Z,75.40
2018-06-01T10:52:47.596Z,72.20
2018-06-01T10:55:15.832Z,69.50
2018-06-01T10:57:44.874Z,72.50
2018-06-01T11:00:13.823Z,70.70
2018-06-01T11:02:42.061Z,70.90
2018-06-01T11:05:11.058Z,70.00
2018-06-01T11:07:39.399Z,70.00
2018-06-01T11:10:07.746Z,71.90
2018-06-01T11:12:36.748Z,70.80
2018-06-01T11:15:05.013Z,70.80
2018-06-01T11:17:33.998Z,71.50
2018-06-01T11:20:02.258Z,71.50
2018-06-01T11:22:32.868Z,75.00
2018-06-01T11:25:02.447Z,73.90
2018-06-01T11:27:30.639Z,68.20
2018-06-01T11:29:58.861Z,70.00
2018-06-01T11:32:27.917Z,69.20
2018-06-01T11:34:56.156Z,69.20
2018-06-01T11:37:25.181Z,67.20
2018-06-01T11:39:54.361Z,67.00
2018-06-01T11:42:24.698Z,66.90
2018-06-01T11:44:53.496Z,66.80
2018-06-01T11:47:22.473Z,65.70
2018-06-01T11:49:50.713Z,65.70
2018-06-01T11:52:18.977Z,62.90
2018-06-01T11:54:47.977Z,62.50
2018-06-01T11:57:16.229Z,62.40
2018-06-01T11:59:45.230Z,69.50
2018-06-01T12:02:13.452Z,69.40
2018-06-01T12:04:42.543Z,67.80
2018-06-01T12:07:10.822Z,62.30
2018-06-01T12:09:39.124Z,61.60
2018-06-01T12:12:07.330Z,61.90
2018-06-01T12:14:36.327Z,59.80
2018-06-01T12:17:04.550Z,59.10
2018-06-01T12:19:32.775Z,62.30
2018-06-01T12:22:00.992Z,61.00
2018-06-01T12:24:29.465Z,57.80
2018-06-01T12:26:57.660Z,62.40
2018-06-01T12:29:25.906Z,62.00
2018-06-01T12:31:54.149Z,62.40
2018-06-01T12:34:22.411Z,65.00
2018-06-01T12:36:50.657Z,62.70
2018-06-01T12:39:19.650Z,65.80
2018-06-01T12:41:48.641Z,68.80
2018-06-01T12:44:16.963Z,68.60
2018-06-01T12:46:45.375Z,68.20
2018-06-01T12:49:13.616Z,62.50
2018-06-01T12:51:42.666Z,62.00
2018-06-01T12:54:10.952Z,61.40
2018-06-01T12:56:39.161Z,65.10
2018-06-01T12:59:07.601Z,62.40
2018-06-01T13:01:36.572Z,64.40
2018-06-01T13:04:04.793Z,63.80
2018-06-01T13:06:33.822Z,61.00
2018-06-01T13:09:02.797Z,62.20
2018-06-01T13:11:31.790Z,64.60
2018-06-01T13:14:00.019Z,64.80
2018-06-01T13:16:28.242Z,63.10
2018-06-01T13:18:56.495Z,58.40
2018-06-01T13:21:24.722Z,58.70
2018-06-01T13:23:52.987Z,59.90
2018-06-01T13:26:21.260Z,63.80
2018-06-01T13:28:50.324Z,62.80
2018-06-01T13:31:18.626Z,60.20
2018-06-01T13:33:46.814Z,59.40
2018-06-01T13:36:15.793Z,65.60
2018-06-01T13:38:44.114Z,66.10
2018-06-01T13:41:12.391Z,65.90
2018-06-01T13:43:40.612Z,66.70
2018-06-01T13:46:08.827Z,65.80
2018-06-01T13:48:37.062Z,65.70
2018-06-01T13:51:05.296Z,67.90
2018-06-01T13:53:33.560Z,63.10
2018-06-01T13:56:02.540Z,65.20
2018-06-01T13:58:30.759Z,65.00
2018-06-01T14:00:59.001Z,61.50
2018-06-01T14:03:27.217Z,65.90
2018-06-01T14:05:56.238Z,64.10
2018-06-01T14:08:24.481Z,64.10
2018-06-01T14:10:52.760Z,66.20
2018-06-01T14:13:21.017Z,70.00
2018-06-01T14:15:49.243Z,69.30
2018-06-01T14:18:17.677Z,67.00
2018-06-01T14:20:46.689Z,66.90
2018-06-01T14:23:14.962Z,66.90
2018-06-01T14:25:43.939Z,67.60
2018-06-01T14:28:12.972Z,69.20
2018-06-01T14:30:42.013Z,70.50
2018-06-01T14:33:10.965Z,64.50
2018-06-01T14:35:39.963Z,63.80
2018-06-01T14:38:08.191Z,63.80
2018-06-01T14:40:37.214Z,69.80
2018-06-01T14:43:05.406Z,69.80
2018-06-01T14:45:33.638Z,70.60
2018-06-01T14:48:01.881Z,70.60
2018-06-01T14:50:30.137Z,71.10
2018-06-01T14:52:59.131Z,71.50
2018-06-01T14:55:27.353Z,71.50
2018-06-01T14:57:55.590Z,71.90
2018-06-01T15:00:24.728Z,74.70
2018-06-01T15:02:52.930Z,70.80
2018-06-01T15:05:21.897Z,71.30
2018-06-01T15:07:50.124Z,71.20
2018-06-01T15:10:18.368Z,75.30
2018-06-01T15:12:46.598Z,70.40
2018-06-01T15:15:14.833Z,75.70
2018-06-01T15:17:43.061Z,68.20
2018-06-01T15:20:12.077Z,74.50
2018-06-01T15:22:40.336Z,74.50
2018-06-01T15:25:08.556Z,71.10
2018-06-01T15:27:37.552Z,73.90
2018-06-01T15:30:05.769Z,73.90
2018-06-01T15:32:34.005Z,72.90
2018-06-01T15:35:02.221Z,69.80
2018-06-01T15:37:30.474Z,71.10
2018-06-01T15:39:58.705Z,72.40
2018-06-01T15:42:26.929Z,68.70
2018-06-01T15:44:55.154Z,72.30
2018-06-01T15:47:24.137Z,72.50
2018-06-01T15:49:52.374Z,72.50
2018-06-01T15:54:54.135Z,70.70
2018-06-01T15:57:23.118Z,67.70
2018-06-01T15:59:51.349Z,67.70
2018-06-01T16:02:20.393Z,73.80
2018-06-01T16:04:48.664Z,73.70
2018-06-01T16:07:16.913Z,72.90
2018-06-01T16:09:45.140Z,72.20
2018-06-01T16:12:13.404Z,70.90
2018-06-01T16:14:43.413Z,70.50
2018-06-01T16:17:11.690Z,70.40
2018-06-01T16:19:40.733Z,70.30
2018-06-01T16:22:09.779Z,70.80
2018-06-01T16:24:38.025Z,70.80
2018-06-01T16:27:07.023Z,71.00
2018-06-01T16:29:35.233Z,71.00
2018-06-01T16:32:03.490Z,71.30
2018-06-01T16:34:31.820Z,67.60
2018-06-01T16:37:00.045Z,66.20
2018-06-01T16:39:28.273Z,69.40
2018-06-01T16:41:57.251Z,67.60
2018-06-01T16:44:25.512Z,67.50
2018-06-01T16:46:54.493Z,64.60
2018-06-01T16:49:22.715Z,64.60
2018-06-01T16:51:51.043Z,66.00
2018-06-01T16:54:19.284Z,68.20
2018-06-01T16:56:47.515Z,69.50
2018-06-01T16:59:15.752Z,69.10
2018-06-01T17:01:43.993Z,68.40
2018-06-01T17:04:13.751Z,68.80
2018-06-01T17:06:42.064Z,68.80
2018-06-01T17:09:12.089Z,68.50
2018-06-01T17:11:40.939Z,67.30
2018-06-01T17:14:10.175Z,68.50
2018-06-01T17:16:38.381Z,70.30
2018-06-01T17:19:06.606Z,70.00
2018-06-01T17:21:34.829Z,70.10
2018-06-01T17:24:03.813Z,69.80
2018-06-01T17:26:32.038Z,69.80
2018-06-01T17:29:00.262Z,71.10
2018-06-01T17:31:28.478Z,70.20
2018-06-01T17:33:56.774Z,70.10
2018-06-01T17:36:25.757Z,69.50
2018-06-01T17:38:54.048Z,69.50
2018-06-01T17:41:22.231Z,70.10
2018-06-01T17:43:50.466Z,69.70
2018-06-01T17:46:18.678Z,70.20
2018-06-01T17:48:47.627Z,70.50
2018-06-01T17:51:16.154Z,70.80
2018-06-01T17:53:45.176Z,71.30
2018-06-01T17:56:13.409Z,71.00
2018-06-01T17:58:41.642Z,70.40
2018-06-01T18:01:09.941Z,71.80
2018-06-01T18:03:38.186Z,71.40
2018-06-01T18:06:06.390Z,73.00
2018-06-01T18:08:35.377Z,73.00
2018-06-01T18:11:03.588Z,73.00
2018-06-01T18:13:32.310Z,71.90
2018-06-01T18:16:00.584Z,73.70
2018-06-01T18:18:28.814Z,74.20
2018-06-01T18:20:57.041Z,89.20
2018-06-01T18:23:26.038Z,92.30
2018-06-01T18:25:54.261Z,92.20
2018-06-01T18:28:22.507Z,93.10
2018-06-01T18:30:50.733Z,93.50
2018-06-01T18:33:18.978Z,94.20
2018-06-01T18:35:47.240Z,93.30
2018-06-01T18:38:15.465Z,86.40
2018-06-01T18:40:43.707Z,93.70
2018-06-01T18:43:11.967Z,94.60
2018-06-01T18:45:40.217Z,94.40
2018-06-01T18:48:08.443Z,94.60
2018-06-01T18:50:36.677Z,94.90
2018-06-01T18:53:04.906Z,95.10
2018-06-01T18:55:33.893Z,94.90
2018-06-01T18:58:02.899Z,95.00
2018-06-01T19:00:31.121Z,95.00
2018-06-01T19:02:59.374Z,94.80
2018-06-01T19:05:27.681Z,94.90
2018-06-01T19:07:56.684Z,95.60
2018-06-01T19:10:25.686Z,96.30
2018-06-01T19:12:54.678Z,96.20
2018-06-01T19:15:22.945Z,96.20
2018-06-01T19:17:51.137Z,96.30
2018-06-01T19:20:19.384Z,96.00
2018-06-01T19:22:47.659Z,96.70
2018-06-01T19:25:16.674Z,96.80
2018-06-01T19:27:44.917Z,96.80
2018-06-01T19:30:13.172Z,96.60
2018-06-01T19:32:41.427Z,95.60
2018-06-01T19:35:10.436Z,96.20
2018-06-01T19:37:38.701Z,96.20
2018-06-01T19:40:06.951Z,95.20
2018-06-01T19:42:36.151Z,95.80
2018-06-01T19:45:05.197Z,96.20
2018-06-01T19:47:33.455Z,96.30
2018-06-01T19:50:02.612Z,96.80
2018-06-01T19:52:31.616Z,95.90
2018-06-01T19:55:00.025Z,95.30
2018-06-01T19:57:29.393Z,94.10
2018-06-01T19:59:57.618Z,94.10
2018-06-01T20:02:26.638Z,93.80
2018-06-01T20:04:55.625Z,94.00
2018-06-01T20:07:24.607Z,93.80
2018-06-01T20:09:52.826Z,93.80
2018-06-01T20:12:21.817Z,94.90
2018-06-01T20:14:50.039Z,94.80
2018-06-01T20:17:18.300Z,95.40
2018-06-01T20:19:46.534Z,94.80
2018-06-01T20:22:14.803Z,95.50
2018-06-01T20:24:43.000Z,95.00
2018-06-01T20:27:11.231Z,94.80
2018-06-01T20:29:39.472Z,95.40
2018-06-01T20:32:07.711Z,95.20
2018-06-01T20:34:35.933Z,95.30
2018-06-01T20:37:04.188Z,95.30
2018-06-01T20:39:32.436Z,95.00
2018-06-01T20:42:00.648Z,95.40
2018-06-01T20:44:28.883Z,95.30
2018-06-01T20:46:57.880Z,95.80
2018-06-01T20:49:26.865Z,95.60
2018-06-01T20:51:55.089Z,95.60
2018-06-01T20:54:23.317Z,95.50
2018-06-01T20:56:51.555Z,95.00
2018-06-01T20:59:20.561Z,95.50
2018-06-01T21:01:48.801Z,95.50
2018-06-01T21:04:17.035Z,95.40
2018-06-01T21:06:46.028Z,95.50
2018-06-01T21:09:14.310Z,95.50
2018-06-01T21:11:42.544Z,95.20
2018-06-01T21:14:10.782Z,95.70
2018-06-01T21:16:39.043Z,95.80
2018-06-01T21:19:07.253Z,95.50
2018-06-01T21:21:35.485Z,95.30
2018-06-01T21:24:03.717Z,95.90
2018-06-01T21:26:31.961Z,96.00
2018-06-01T21:29:00.193Z,96.30
2018-06-01T21:31:28.424Z,96.30
2018-06-01T21:33:56.661Z,96.40
2018-06-01T21:36:24.895Z,96.30
2018-06-01T21:38:53.898Z,96.30
2018-06-01T21:41:22.899Z,96.40
2018-06-01T21:43:51.917Z,96.40
2018-06-01T21:46:20.917Z,96.70
2018-06-01T21:48:49.913Z,96.40
2018-06-01T21:51:18.997Z,95.90
2018-06-01T21:53:47.355Z,95.90
2018-06-01T21:56:15.591Z,96.10
2018-06-01T21:58:43.887Z,96.10
2018-06-01T22:01:12.152Z,95.80
2018-06-01T22:03:40.388Z,96.60
2018-06-01T22:06:08.625Z,96.10
2018-06-01T22:08:36.895Z,96.40
2018-06-01T22:11:05.130Z,96.50
2018-06-01T22:13:34.135Z,96.40
2018-06-01T22:16:03.136Z,96.60
2018-06-01T22:18:31.359Z,96.60
2018-06-01T22:20:59.599Z,96.30
2018-06-01T22:23:27.835Z,96.60
2018-06-01T22:25:56.070Z,96.80
2018-06-01T22:28:24.292Z,96.30
2018-06-01T22:30:53.310Z,96.30
2018-06-01T22:33:21.615Z,96.30
2018-06-01T22:35:50.586Z,96.70
2018-06-01T22:38:19.583Z,96.50
2018-06-01T22:40:47.875Z,96.40
2018-06-01T22:43:16.881Z,96.80
2018-06-01T22:45:45.895Z,97.00
2018-06-01T22:48:14.912Z,96.60
2018-06-01T22:50:43.913Z,96.80
2018-06-01T22:53:12.923Z,96.70
2018-06-01T22:55:41.993Z,96.50
2018-06-01T22:58:10.295Z,96.50
2018-06-01T23:00:41.269Z,97.20
2018-06-01T23:03:09.257Z,97.10
2018-06-01T23:05:37.494Z,96.90
2018-06-01T23:08:05.901Z,97.10
2018-06-01T23:10:34.122Z,96.50
2018-06-01T23:13:03.108Z,96.30
2018-06-01T23:15:32.129Z,95.60
2018-06-01T23:18:00.349Z,95.50
2018-06-01T23:20:28.571Z,95.80
2018-06-01T23:22:56.798Z,95.70
2018-06-01T23:25:25.028Z,95.60
2018-06-01T23:27:54.076Z,95.40
2018-06-01T23:30:23.073Z,95.80
2018-06-01T23:32:51.301Z,95.80
2018-06-01T23:35:19.565Z,95.70
2018-06-01T23:37:48.556Z,95.90
2018-06-01T23:40:16.838Z,95.90
2018-06-01T23:42:45.079Z,95.90
2018-06-01T23:45:13.317Z,95.60
2018-06-01T23:47:41.563Z,95.60
2018-06-01T23:50:09.822Z,95.10
2018-06-01T23:52:38.938Z,94.90
2018-06-01T23:55:07.926Z,94.70
2018-06-01T23:57:36.911Z,95.10
